createdAt,value
2022-07-25T00:02:44.695Z,5.93
2022-07-25T00:13:06.328Z,5.63
2022-07-25T00:23:27.923Z,5.50
2022-07-25T00:33:49.343Z,5.68
2022-07-25T00:44:22.442Z,5.97
2022-07-25T00:54:46.979Z,5.85
2022-07-25T01:05:09.130Z,6.03
2022-07-25T01:15:32.763Z,6.30
2022-07-25T01:25:54.408Z,6.15
2022-07-25T01:36:15.930Z,5.97
2022-07-25T01:46:37.530Z,6.20
2022-07-25T01:56:59.185Z,6.35
2022-07-25T02:07:20.754Z,6.15
2022-07-25T02:17:42.275Z,6.18
2022-07-25T02:28:03.986Z,5.45
2022-07-25T02:38:26.296Z,6.07
2022-07-25T02:48:47.883Z,5.50
2022-07-25T02:59:09.460Z,6.03
2022-07-25T03:09:31.046Z,5.93
2022-07-25T03:19:52.570Z,6.18
2022-07-25T03:30:14.146Z,6.25
2022-07-25T03:40:36.521Z,5.55
2022-07-25T03:50:59.476Z,5.65
2022-07-25T04:01:22.814Z,6.00
2022-07-25T04:11:44.454Z,5.50
2022-07-25T04:22:05.970Z,5.40
2022-07-25T04:32:27.524Z,5.30
2022-07-25T04:42:49.275Z,5.15
2022-07-25T04:53:10.835Z,5.47
2022-07-25T05:03:32.362Z,5.40
2022-07-25T05:13:53.917Z,5.78
2022-07-25T05:24:15.549Z,5.32
2022-07-25T05:34:37.075Z,4.90
2022-07-25T05:44:58.598Z,5.30
2022-07-25T05:55:20.193Z,5.28
2022-07-25T06:05:41.818Z,5.30
2022-07-25T06:16:03.727Z,5.35
2022-07-25T06:26:25.573Z,5.15
2022-07-25T06:36:47.079Z,5.18
2022-07-25T06:47:12.953Z,5.40
2022-07-25T06:57:35.455Z,4.72
2022-07-25T07:07:58.078Z,4.47
2022-07-25T07:18:20.869Z,4.60
2022-07-25T07:28:42.564Z,5.30
2022-07-25T07:39:04.411Z,4.78
2022-07-25T07:49:26.337Z,5.10
2022-07-25T07:59:47.952Z,4.72
2022-07-25T08:10:09.838Z,4.70
2022-07-25T08:20:39.145Z,4.43
2022-07-25T08:31:01.076Z,4.72
2022-07-25T08:41:24.853Z,4.38
2022-07-25T08:51:47.498Z,4.30
2022-07-25T09:02:14.709Z,4.30
2022-07-25T09:12:36.360Z,4.50
2022-07-25T09:23:01.040Z,4.57
2022-07-25T09:33:24.255Z,3.95
2022-07-25T09:43:45.851Z,4.20
2022-07-25T09:54:07.961Z,4.15
2022-07-25T10:05:11.704Z,3.95
2022-07-25T10:15:51.437Z,4.40
2022-07-25T10:26:16.260Z,4.05
2022-07-25T10:36:57.275Z,4.68
2022-07-25T10:47:23.207Z,4.95
2022-07-25T10:58:07.787Z,4.50
2022-07-25T11:08:33.301Z,5.68
2022-07-25T11:18:54.936Z,4.95
2022-07-25T11:29:26.939Z,5.10
2022-07-25T11:39:48.819Z,5.93
2022-07-25T11:50:14.833Z,7.22
2022-07-25T12:00:41.670Z,9.52
2022-07-25T12:11:03.235Z,8.30
2022-07-25T12:21:24.933Z,8.57
2022-07-25T12:31:46.515Z,7.28
2022-07-25T12:42:08.100Z,4.00
2022-07-25T12:52:29.698Z,3.63
2022-07-25T13:02:53.168Z,2.70
2022-07-25T13:13:14.939Z,3.13
2022-07-25T13:23:36.803Z,3.38
2022-07-25T13:33:58.349Z,3.10
2022-07-25T13:44:20.742Z,2.90
2022-07-25T13:54:42.647Z,3.15
2022-07-25T14:05:04.967Z,2.70
2022-07-25T14:15:26.686Z,2.47
2022-07-25T14:25:48.299Z,1.90
2022-07-25T14:36:10.276Z,1.85
2022-07-25T14:46:31.977Z,1.50
2022-07-25T14:56:54.658Z,1.80
2022-07-25T15:07:16.221Z,1.70
2022-07-25T15:17:38.698Z,1.73
2022-07-25T15:28:00.331Z,1.33
2022-07-25T15:38:21.989Z,1.27
2022-07-25T15:48:44.725Z,1.40
2022-07-25T15:59:06.809Z,1.52
2022-07-25T16:09:28.415Z,1.83
2022-07-25T16:19:49.969Z,2.47
2022-07-25T16:30:12.141Z,2.50
2022-07-25T16:40:34.209Z,1.95
2022-07-25T16:50:55.880Z,2.50
2022-07-25T17:01:32.535Z,2.28
2022-07-25T17:11:54.131Z,2.38
2022-07-25T17:22:15.777Z,2.13
2022-07-25T17:32:37.365Z,1.75
2022-07-25T17:42:59.233Z,1.67
2022-07-25T17:53:20.831Z,1.60
2022-07-25T18:03:42.832Z,1.55
2022-07-25T18:14:04.645Z,1.70
2022-07-25T18:24:29.398Z,1.48
2022-07-25T18:34:51.154Z,1.60
2022-07-25T18:45:12.928Z,1.65
2022-07-25T18:55:35.240Z,1.10
2022-07-25T19:06:02.818Z,1.38
2022-07-25T19:16:25.194Z,1.25
2022-07-25T19:26:48.307Z,1.02
2022-07-25T19:37:10.258Z,0.90
2022-07-25T19:47:31.839Z,1.17
2022-07-25T19:57:53.511Z,1.08
2022-07-25T20:08:15.050Z,1.10
2022-07-25T20:18:36.595Z,1.27
2022-07-25T20:28:58.274Z,1.38
2022-07-25T20:39:19.912Z,1.30
2022-07-25T20:49:42.189Z,1.40
2022-07-25T21:00:04.874Z,1.20
2022-07-25T21:10:26.637Z,1.27
2022-07-25T21:20:48.927Z,1.70
2022-07-25T21:31:13.672Z,1.30
2022-07-25T21:41:35.223Z,1.30
2022-07-25T21:51:57.056Z,1.50
2022-07-25T22:02:19.529Z,1.50
2022-07-25T22:12:41.401Z,1.40
2022-07-25T22:23:03.612Z,1.60
2022-07-25T22:33:28.097Z,1.58
2022-07-25T22:43:58.118Z,1.65
2022-07-25T22:54:20.846Z,1.48
2022-07-25T23:04:42.405Z,1.92
2022-07-25T23:15:04.916Z,1.48
2022-07-25T23:25:26.450Z,1.70
2022-07-25T23:35:48.041Z,1.80
2022-07-25T23:46:09.548Z,1.70
2022-07-25T23:56:31.153Z,1.55
